Aeroporto :
LOGIN :

Iscrizione | Disclaimer

   EN    FR    IT 

 










Sommario :    VFR   VFR Marginale   IFR   IFR Intensivo   IFR Molto Intensivo
Visibilità : 
Base nubi : 
>= 8 km
>= 3000ft
5 / 8 km
1000 / 3000 ft
1500m / 5 km
500 / 1000 ft
800 / 1500m
200 / 500 ft
< 800m
< 200 ft
Simboli :   Temporali  Nebbia  Neve Forte  Precipitazioni Forti  Vento > 20 kt
SIGMETs :   Varie  Temporali  Ghiacco  Turbolenza  Onda orograficha  Ceneri Vulcaniche







- Altitudine del aeroporto : 1363 ft


ETIC - Grafenwohr Army Air Field

ULTIMO METAR :
  • 220956Z AUTO 29007KT 9999 SCT170 25/12 A3025 RMK AO2 SLP231 T02510123 $

METARs OBSOLETI :
  • 220856Z AUTO 22003KT 9999 SCT170 SCT200 24/13 A3026 RMK AO2 SLP236 T02350134 50002 $
  • 220756Z AUTO 00000KT 9999 CLR 20/15 A3026 RMK AO2 SLP236 T02020154 $

TAF TAF ETIC
Valido dal 22 a 06 ore il 23 a 12 ore UTC


220607Z 2206/2312 VRB06KT 9999 SCT050 QNH3021INS
BECMG 2208/2209 28009KT 9999 FEW080 BKN140 QNH3020INS
BECMG 2217/2218 VRB06KT 9999 BKN100 QNH3019INS
TEMPO 2302/2304 8000 BR TX27/2213Z TN11/2304Z
Nessun NOTAM noto per questo aeroporto.



MetMap, La meteo Aeronautica in un colpo d'occhio ! - Copyright ORBIFLY Dicembre 2007 - Disclaimer

ORBIFLY MET'MAP TEAM :

Programmazione e sviluppo : Alexandra Zaïnal
Concezione e sviluppo : Baudouin d'Aumeries
Co-Programmazione e sviluppo : Marc-Olivier Méhu
Supporto tecnico e logistico : Manuel Goepfert
Aiuto per la traduzione : Arnaldo La Scala

Contatto : metmap@orbifly.com




FONTI E CREDITI :

   NOAA